Time;durP1;ratioP1;P1;durP2;ratioP2;P2;SDS_P1;SDS_P2;PMS_P1;PMS_P2;Temp;Humidity;BMP_temperature;BMP_pressure;BME280_temperature;BME280_humidity;BME280_pressure;Samples;Min_cycle;Max_cycle;Signal;HPM_P1;HPM_P2
2021/10/18 00:02:07;;;;;;;14.63;9.75;;;;;;;9.14;86.66;102196.47;5113798;28;20020;-36
2021/10/18 00:04:33;;;;;;;12.60;8.95;;;;;;;9.25;87.10;102206.78;5113253;28;20360;-36
2021/10/18 00:06:58;;;;;;;13.33;10.13;;;;;;;9.22;85.98;102206.31;5113799;28;20452;-36
2021/10/18 00:09:23;;;;;;;14.00;10.20;;;;;;;9.20;86.21;102216.47;5113487;28;20146;-36
2021/10/18 00:11:49;;;;;;;14.93;9.80;;;;;;;9.22;86.47;102204.47;5114246;28;20030;-36
2021/10/18 00:14:14;;;;;;;16.97;10.10;;;;;;;9.21;87.51;102199.25;5113766;28;20040;-36
2021/10/18 00:16:40;;;;;;;17.47;9.40;;;;;;;9.13;87.26;102185.88;5114040;28;20020;-36
2021/10/18 00:19:07;;;;;;;16.15;10.73;;;;;;;9.06;87.47;102179.56;5113304;28;20019;-36
2021/10/18 00:21:32;;;;;;;14.77;9.93;;;;;;;9.11;86.59;102198.72;5113852;28;20024;-36
2021/10/18 00:23:58;;;;;;;13.23;9.80;;;;;;;9.10;85.70;102205.97;5113089;28;20352;-36
2021/10/18 00:26:23;;;;;;;15.68;9.80;;;;;;;9.02;86.43;102187.19;5113381;28;20026;-36
2021/10/18 00:28:48;;;;;;;16.02;11.35;;;;;;;9.09;86.49;102208.88;5113575;28;20028;-36
2021/10/18 00:31:14;;;;;;;15.23;11.10;;;;;;;9.10;85.85;102210.53;5113619;28;20100;-36
2021/10/18 00:33:39;;;;;;;15.07;10.53;;;;;;;9.12;86.38;102214.72;5113486;28;20027;-36
2021/10/18 00:36:04;;;;;;;15.87;11.60;;;;;;;9.07;85.74;102213.59;5113374;28;20426;-36
2021/10/18 00:38:30;;;;;;;18.63;10.30;;;;;;;9.05;86.61;102216.50;5113236;28;20060;-36
2021/10/18 00:40:55;;;;;;;15.87;11.60;;;;;;;8.97;86.58;102211.19;5114914;28;20050;-36
2021/10/18 00:43:21;;;;;;;16.67;10.80;;;;;;;9.05;86.53;102221.06;5117606;28;20357;-36
2021/10/18 00:45:46;;;;;;;15.77;10.88;;;;;;;9.04;86.35;102225.63;5117286;28;20072;-36
2021/10/18 00:48:12;;;;;;;18.60;11.05;;;;;;;9.01;86.74;102237.63;5117037;28;20104;-36
2021/10/18 00:50:37;;;;;;;16.97;11.00;;;;;;;9.03;86.22;102238.28;5117077;28;20020;-36
2021/10/18 00:53:03;;;;;;;14.43;10.97;;;;;;;8.98;86.62;102229.91;5117328;28;20022;-36
2021/10/18 00:55:29;;;;;;;16.10;10.32;;;;;;;9.00;87.41;102233.25;5116962;28;20318;-36
2021/10/18 00:57:55;;;;;;;17.23;11.90;;;;;;;9.00;87.00;102244.03;5117465;28;20027;-36
2021/10/18 01:00:20;;;;;;;16.02;10.35;;;;;;;9.02;86.15;102246.53;5116895;28;20310;-36
2021/10/18 01:02:46;;;;;;;15.63;11.50;;;;;;;8.94;86.63;102234.00;5116936;28;20031;-36
2021/10/18 01:05:12;;;;;;;16.52;12.07;;;;;;;9.02;87.29;102244.69;5116515;28;20023;-36
2021/10/18 01:07:38;;;;;;;18.90;11.63;;;;;;;9.03;87.17;102240.97;5116729;28;20027;-36
2021/10/18 01:10:04;;;;;;;20.00;12.70;;;;;;;9.06;87.95;102247.84;5116793;28;20020;-36
2021/10/18 01:12:30;;;;;;;13.48;9.05;;;;;;;9.12;87.29;102251.66;5116884;28;20019;-36
2021/10/18 01:14:55;;;;;;;15.98;10.55;;;;;;;9.09;87.52;102242.09;5116796;28;20520;-36
2021/10/18 01:17:21;;;;;;;15.67;11.50;;;;;;;9.09;87.33;102241.25;5116687;28;20020;-36
2021/10/18 01:19:48;;;;;;;16.87;11.70;;;;;;;9.05;86.50;102254.28;5116967;28;20027;-36
2021/10/18 01:22:13;;;;;;;14.23;10.57;;;;;;;9.08;87.63;102244.94;5117182;28;20023;-36
2021/10/18 01:24:39;;;;;;;19.70;11.27;;;;;;;9.06;88.45;102239.75;5116667;28;20051;-36
2021/10/18 01:27:05;;;;;;;16.97;11.60;;;;;;;9.03;88.31;102235.59;5116923;28;20026;-36
2021/10/18 01:29:32;;;;;;;16.20;10.98;;;;;;;9.02;87.36;102233.06;5115922;28;20016;-36
2021/10/18 01:31:57;;;;;;;15.43;10.52;;;;;;;9.02;88.20;102230.34;5116862;28;20024;-36
2021/10/18 01:34:22;;;;;;;13.53;10.43;;;;;;;8.97;88.05;102227.38;5116699;28;20015;-36
2021/10/18 01:36:48;;;;;;;15.80;11.50;;;;;;;8.96;87.41;102233.81;5116470;28;20238;-36
2021/10/18 01:39:13;;;;;;;15.43;11.40;;;;;;;8.95;88.12;102230.28;5116092;28;20030;-36
2021/10/18 01:41:39;;;;;;;17.92;11.90;;;;;;;8.87;87.23;102226.81;5115863;28;20455;-36
2021/10/18 01:44:04;;;;;;;14.03;11.13;;;;;;;8.89;87.34;102228.31;5097780;28;20432;-36
2021/10/18 01:46:29;;;;;;;15.37;11.53;;;;;;;8.87;87.43;102230.34;5116269;28;20019;-36
2021/10/18 01:48:55;;;;;;;15.20;11.40;;;;;;;8.89;88.54;102236.41;5116202;28;20448;-36
2021/10/18 01:51:20;;;;;;;18.73;11.60;;;;;;;8.91;88.13;102230.81;5115532;28;20023;-36
2021/10/18 01:53:45;;;;;;;14.90;10.97;;;;;;;8.90;88.17;102223.75;5115857;28;20027;-36
2021/10/18 01:56:11;;;;;;;13.73;9.80;;;;;;;8.95;88.82;102229.44;5116358;28;20031;-36
2021/10/18 01:58:36;;;;;;;17.03;12.13;;;;;;;8.88;88.84;102225.78;5115418;28;20164;-36
2021/10/18 02:01:03;;;;;;;16.47;13.03;;;;;;;8.76;89.09;102214.63;5116242;28;20024;-36
2021/10/18 02:03:29;;;;;;;16.85;11.55;;;;;;;8.84;88.31;102219.97;5115587;28;20440;-36
2021/10/18 02:05:55;;;;;;;20.40;11.88;;;;;;;8.82;88.76;102221.97;5115691;28;20045;-36
2021/10/18 02:08:20;;;;;;;16.50;11.00;;;;;;;8.79;88.90;102216.16;5115831;28;20035;-36
2021/10/18 02:10:46;;;;;;;13.83;10.20;;;;;;;8.79;89.44;102219.69;5115719;28;20333;-36
2021/10/18 02:13:11;;;;;;;16.48;11.85;;;;;;;8.72;89.07;102216.03;5115493;28;20153;-36
2021/10/18 02:15:36;;;;;;;16.13;12.20;;;;;;;8.67;88.79;102213.88;5115749;28;20043;-36
2021/10/18 02:18:03;;;;;;;15.02;11.43;;;;;;;8.64;88.58;102206.19;5115161;28;20022;-36
2021/10/18 02:20:28;;;;;;;23.95;13.00;;;;;;;8.62;88.89;102210.06;5115211;28;20375;-36
2021/10/18 02:22:54;;;;;;;17.00;12.10;;;;;;;8.62;88.83;102216.31;5115527;28;20032;-36
2021/10/18 02:25:19;;;;;;;15.43;11.20;;;;;;;8.55;88.27;102199.19;5115172;28;20444;-36
2021/10/18 02:27:45;;;;;;;17.50;12.10;;;;;;;8.46;88.72;102211.09;5115166;28;20016;-36
2021/10/18 02:30:11;;;;;;;15.27;11.33;;;;;;;8.40;88.29;102206.44;5114810;28;20027;-36
2021/10/18 02:32:37;;;;;;;;;;;;;;;8.50;87.48;102207.84;5115230;28;20022;-36
2021/10/18 02:35:04;;;;;;;14.73;11.15;;;;;;;8.19;88.57;102169.34;5114674;28;19998;-36
2021/10/18 02:37:30;;;;;;;21.10;12.80;;;;;;;8.28;88.82;102208.69;5115021;28;20060;-36
2021/10/18 02:39:55;;;;;;;15.83;11.80;;;;;;;8.21;88.05;102207.75;5114907;28;20449;-36
2021/10/18 02:42:20;;;;;;;16.57;12.70;;;;;;;8.11;88.21;102191.84;5096203;28;20038;-36
2021/10/18 02:44:47;;;;;;;17.27;12.30;;;;;;;8.04;88.69;102195.44;5114551;28;20080;-36
2021/10/18 02:47:13;;;;;;;15.15;11.15;;;;;;;7.97;89.03;102185.38;5115058;28;20016;-36
2021/10/18 02:49:38;;;;;;;16.90;12.25;;;;;;;7.97;89.31;102195.31;5114981;28;20026;-36
2021/10/18 02:52:04;;;;;;;15.60;11.73;;;;;;;7.99;88.68;102196.81;5114934;28;20019;-36
2021/10/18 02:54:29;;;;;;;11.93;8.90;;;;;;;7.98;89.67;102197.00;5114370;28;20395;-36
2021/10/18 02:56:55;;;;;;;17.23;11.80;;;;;;;7.95;88.68;102208.97;5114574;28;20065;-36
2021/10/18 02:59:20;;;;;;;18.38;12.93;;;;;;;7.80;89.48;102183.00;5114471;28;20020;-36
2021/10/18 03:01:45;;;;;;;14.77;12.00;;;;;;;7.80;88.19;102207.22;5114704;28;20463;-36
2021/10/18 03:04:11;;;;;;;14.37;10.67;;;;;;;7.86;89.68;102198.44;5114227;28;20106;-36
2021/10/18 03:06:36;;;;;;;21.90;12.03;;;;;;;7.84;90.24;102187.84;5114455;28;20055;-36
2021/10/18 03:09:02;;;;;;;14.30;11.43;;;;;;;7.81;89.49;102169.38;5115080;28;20352;-36
2021/10/18 03:11:27;;;;;;;18.65;12.65;;;;;;;7.87;89.83;102179.41;5114636;28;20363;-36
2021/10/18 03:13:53;;;;;;;15.93;12.13;;;;;;;7.84;90.09;102169.00;5114048;28;20430;-36
2021/10/18 03:16:18;;;;;;;16.83;12.23;;;;;;;7.78;89.86;102164.34;5114779;28;20077;-36
2021/10/18 03:18:44;;;;;;;20.23;13.27;;;;;;;7.77;90.27;102186.91;5114643;28;20285;-36
2021/10/18 03:21:09;;;;;;;18.53;12.10;;;;;;;7.74;90.33;102190.78;5114463;28;20253;-36
2021/10/18 03:23:34;;;;;;;17.83;11.80;;;;;;;7.79;89.80;102184.03;5114083;28;20024;-36
2021/10/18 03:26:00;;;;;;;17.07;13.13;;;;;;;7.69;90.75;102184.25;5114354;28;20102;-36
2021/10/18 03:28:25;;;;;;;19.73;13.07;;;;;;;7.72;90.63;102183.91;5114037;28;20027;-36
2021/10/18 03:30:50;;;;;;;15.17;11.80;;;;;;;7.76;91.12;102179.84;5114285;28;20031;-36
2021/10/18 03:33:16;;;;;;;17.70;12.97;;;;;;;7.69;90.48;102187.78;5114757;28;20356;-36
2021/10/18 03:35:42;;;;;;;17.02;11.13;;;;;;;7.72;90.78;102181.22;5113869;28;20110;-36
2021/10/18 03:38:07;;;;;;;17.90;12.18;;;;;;;7.64;90.59;102184.78;5114364;28;20098;-36
2021/10/18 03:40:33;;;;;;;18.77;11.83;;;;;;;7.65;90.43;102189.16;5114166;28;20355;-36
2021/10/18 03:42:58;;;;;;;20.60;13.13;;;;;;;7.61;90.50;102195.06;5114148;28;20027;-36
2021/10/18 03:45:23;;;;;;;20.87;14.07;;;;;;;7.62;90.52;102200.28;5113792;28;20023;-36
2021/10/18 03:47:49;;;;;;;15.60;12.70;;;;;;;7.48;90.20;102185.75;5114533;28;20019;-36
2021/10/18 03:50:15;;;;;;;15.13;12.50;;;;;;;7.49;90.18;102191.97;5113776;28;20740;-36
2021/10/18 03:52:41;;;;;;;14.65;12.35;;;;;;;7.45;nan;102201.41;5114461;28;20044;-36
2021/10/18 03:55:07;;;;;;;15.95;12.90;;;;;;;7.43;90.30;102215.03;5113959;28;20063;-36
2021/10/18 03:57:33;;;;;;;16.83;11.55;;;;;;;7.42;90.47;102202.59;5113823;28;20027;-36
2021/10/18 03:59:58;;;;;;;18.07;13.93;;;;;;;7.37;89.95;102215.75;5113836;28;20062;-36
2021/10/18 04:02:23;;;;;;;15.27;12.40;;;;;;;7.40;90.05;102220.78;5114149;28;20409;-36
2021/10/18 04:04:49;;;;;;;19.40;13.03;;;;;;;7.39;91.13;102207.50;5113577;28;20073;-36
2021/10/18 04:07:14;;;;;;;17.27;13.27;;;;;;;7.43;89.79;102209.66;5113858;28;20036;-36
2021/10/18 04:09:39;;;;;;;17.33;12.80;;;;;;;7.38;90.80;102206.66;5113546;28;20106;-36
2021/10/18 04:12:06;;;;;;;19.93;13.87;;;;;;;7.39;90.09;102211.03;5113544;28;20020;-36
2021/10/18 04:14:31;;;;;;;22.15;14.10;;;;;;;7.41;91.91;102222.44;5113340;28;20057;-36
2021/10/18 04:16:57;;;;;;;18.50;13.52;;;;;;;7.39;91.70;102223.66;5117338;28;20023;-36
2021/10/18 04:19:22;;;;;;;16.97;12.87;;;;;;;7.37;90.93;102217.59;5117347;28;20508;-36
2021/10/18 04:21:47;;;;;;;17.63;12.77;;;;;;;7.33;90.81;102211.75;5117613;28;20016;-36
2021/10/18 04:24:13;;;;;;;16.60;12.87;;;;;;;7.34;91.20;102220.66;5117478;28;20122;-35
2021/10/18 04:26:40;;;;;;;21.40;13.87;;;;;;;7.23;91.25;102203.88;5098748;28;20122;-36
2021/10/18 04:29:07;;;;;;;19.40;14.23;;;;;;;7.25;91.95;102214.47;5118093;28;20070;-36
2021/10/18 04:31:33;;;;;;;18.60;13.93;;;;;;;7.24;91.33;102218.16;5117705;28;20053;-36
2021/10/18 04:33:59;;;;;;;;;;;;;;;7.38;90.25;102212.03;5117460;28;20514;-36
2021/10/18 04:36:25;;;;;;;19.33;13.75;;;;;;;7.27;90.83;102208.88;5117593;28;20006;-36
2021/10/18 04:38:51;;;;;;;19.90;14.82;;;;;;;7.14;90.42;102202.25;5117159;28;20107;-36
2021/10/18 04:41:16;;;;;;;22.50;14.10;;;;;;;7.20;91.25;102214.16;5117334;28;20063;-36
2021/10/18 04:43:41;;;;;;;19.93;13.63;;;;;;;7.17;90.97;102220.75;5117246;28;20019;-36
2021/10/18 04:46:07;;;;;;;18.17;13.90;;;;;;;7.10;90.98;102208.16;5117487;28;20024;-36
2021/10/18 04:48:32;;;;;;;17.67;13.93;;;;;;;7.04;90.49;102208.84;5116866;28;20031;-36
2021/10/18 04:50:58;;;;;;;17.20;13.80;;;;;;;7.08;90.84;102219.09;5117543;28;20020;-36
2021/10/18 04:53:23;;;;;;;18.37;13.57;;;;;;;7.07;91.20;102224.63;5117147;28;20099;-36
2021/10/18 04:55:48;;;;;;;19.27;13.40;;;;;;;7.01;90.66;102215.41;5117147;28;20123;-36
2021/10/18 04:58:14;;;;;;;23.20;15.37;;;;;;;7.03;91.80;102228.66;5117678;28;20055;-36
2021/10/18 05:00:44;;;;;;;19.27;13.53;;;;;;;7.00;91.68;102215.59;5117244;28;20027;-36
2021/10/18 05:03:09;;;;;;;20.77;13.82;;;;;;;6.99;91.84;102221.97;5117137;28;20054;-36
2021/10/18 05:05:35;;;;;;;23.55;16.05;;;;;;;6.93;92.06;102216.28;5117052;28;20103;-36
2021/10/18 05:08:05;;;;;;;16.27;12.87;;;;;;;7.01;92.03;102222.63;5117071;28;20497;-36
2021/10/18 05:10:31;;;;;;;21.05;14.60;;;;;;;6.99;91.97;102228.19;5116403;28;20027;-36
2021/10/18 05:12:57;;;;;;;;;;;;;;;7.09;90.96;102228.81;5117135;28;20035;-36
2021/10/18 05:15:23;;;;;;;22.20;14.85;;;;;;;7.00;91.76;102218.28;5116142;28;19912;-36
2021/10/18 05:17:49;;;;;;;21.13;15.48;;;;;;;6.90;91.67;102211.25;5115917;28;20508;-36
2021/10/18 05:20:14;;;;;;;21.83;15.43;;;;;;;6.97;91.85;102220.28;5115456;28;20110;-36
2021/10/18 05:22:40;;;;;;;22.87;15.43;;;;;;;6.97;92.21;102222.97;5115430;28;20404;-36
2021/10/18 05:25:05;;;;;;;18.03;14.57;;;;;;;7.02;92.28;102227.00;5115368;28;20057;-36
2021/10/18 05:27:31;;;;;;;16.77;12.45;;;;;;;7.04;93.16;102225.00;5115191;28;20094;-36
2021/10/18 05:29:56;;;;;;;25.67;16.50;;;;;;;6.96;92.08;102232.06;5115213;28;20034;-36
2021/10/18 05:32:21;;;;;;;23.23;16.00;;;;;;;6.90;92.02;102230.06;5115823;28;20023;-35
2021/10/18 05:34:47;;;;;;;23.17;16.53;;;;;;;6.89;92.45;102228.41;5115372;28;20016;-35
2021/10/18 05:37:12;;;;;;;19.60;15.20;;;;;;;6.88;91.64;102234.78;5115406;28;20047;-36
2021/10/18 05:39:37;;;;;;;24.37;17.43;;;;;;;6.77;92.19;102219.00;5114862;28;20058;-35
2021/10/18 05:42:03;;;;;;;21.93;16.63;;;;;;;6.79;92.32;102235.81;5115063;28;20019;-35
2021/10/18 05:44:29;;;;;;;28.00;16.33;;;;;;;6.82;92.27;102240.00;5114798;28;20077;-35
2021/10/18 05:46:54;;;;;;;20.42;15.63;;;;;;;6.80;92.79;102240.19;5115204;28;20062;-35
2021/10/18 05:49:19;;;;;;;22.33;15.17;;;;;;;6.82;92.83;102240.84;5115235;28;20032;-35
2021/10/18 05:51:45;;;;;;;20.27;15.23;;;;;;;6.88;93.96;102240.16;5115205;28;20198;-35
2021/10/18 05:54:10;;;;;;;22.37;16.10;;;;;;;6.75;93.92;102231.78;5114378;28;20068;-35
2021/10/18 05:56:35;;;;;;;24.53;17.00;;;;;;;6.85;93.73;102247.72;5115058;28;20045;-35
2021/10/18 05:59:01;;;;;;;23.60;18.03;;;;;;;6.78;93.58;102242.19;5114278;28;20114;-35
2021/10/18 06:01:26;;;;;;;21.93;16.43;;;;;;;6.75;92.69;102252.47;5114353;28;20095;-35
2021/10/18 06:03:52;;;;;;;26.08;16.88;;;;;;;6.76;92.98;102249.59;5114871;28;20367;-35
2021/10/18 06:06:17;;;;;;;23.80;17.47;;;;;;;6.76;94.01;102243.38;5115332;28;20027;-35
2021/10/18 06:08:43;;;;;;;24.48;16.23;;;;;;;6.65;93.28;102220.41;5114981;28;20027;-35
2021/10/18 06:11:09;;;;;;;22.33;16.58;;;;;;;6.75;93.22;102252.47;5114706;28;20034;-35
2021/10/18 06:13:35;;;;;;;23.85;16.98;;;;;;;6.73;93.60;102244.56;5114570;28;20023;-35
2021/10/18 06:16:00;;;;;;;22.93;16.73;;;;;;;6.77;93.38;102250.44;5077240;28;1087067;-35
2021/10/18 06:18:26;;;;;;;25.43;17.13;;;;;;;6.57;93.38;102229.31;5115577;28;20037;-35
2021/10/18 06:20:53;;;;;;;24.53;17.17;;;;;;;6.74;93.13;102253.47;5115350;28;20364;-35
2021/10/18 06:23:20;;;;;;;23.75;17.80;;;;;;;6.72;94.07;102267.91;5115475;28;20023;-35
2021/10/18 06:25:46;;;;;;;23.13;16.38;;;;;;;6.75;93.03;102272.13;5115145;28;20107;-35
2021/10/18 06:28:12;;;;;;;22.60;16.92;;;;;;;6.76;93.76;102276.47;5115878;28;20066;-36
2021/10/18 06:30:38;;;;;;;21.90;16.13;;;;;;;6.74;92.42;102269.63;5115062;28;20019;-35
2021/10/18 06:33:04;;;;;;;28.60;17.63;;;;;;;6.74;93.39;102261.56;5115610;28;20020;-35
2021/10/18 06:35:33;;;;;;;26.55;18.33;;;;;;;6.81;93.83;102258.00;5115320;28;20019;-35
2021/10/18 06:37:59;;;;;;;23.20;17.95;;;;;;;6.86;93.73;102261.00;5114490;28;20410;-35
2021/10/18 06:40:25;;;;;;;27.67;18.75;;;;;;;6.85;94.14;102264.69;5114936;28;20016;-35
2021/10/18 06:42:51;;;;;;;26.42;18.85;;;;;;;6.85;93.52;102266.56;5114921;28;20084;-35
2021/10/18 06:45:16;;;;;;;24.80;18.23;;;;;;;6.91;94.08;102264.00;5115027;28;20095;-35
2021/10/18 06:47:42;;;;;;;22.97;16.83;;;;;;;7.01;93.78;102266.50;5114656;28;20030;-35
2021/10/18 06:50:09;;;;;;;21.52;17.13;;;;;;;7.07;94.49;102267.66;5114988;28;20106;-35
2021/10/18 06:52:36;;;;;;;25.95;17.98;;;;;;;7.12;94.18;102281.44;5114930;28;20031;-35
2021/10/18 06:55:05;;;;;;;24.13;18.30;;;;;;;7.06;94.18;102271.38;5114515;28;20523;-35
2021/10/18 06:57:30;;;;;;;27.88;19.73;;;;;;;7.08;94.52;102277.44;5114491;28;20045;-35
2021/10/18 06:59:56;;;;;;;25.58;18.25;;;;;;;7.19;94.04;102279.75;5114965;28;20019;-35
2021/10/18 07:02:21;;;;;;;23.83;18.23;;;;;;;7.13;93.81;102272.38;5114757;28;20044;-35
2021/10/18 07:04:46;;;;;;;23.03;15.33;;;;;;;7.31;94.22;102294.47;5114346;28;20024;-35
2021/10/18 07:07:12;;;;;;;29.27;19.23;;;;;;;7.35;93.94;102294.97;5114495;28;20481;-35
2021/10/18 07:09:38;;;;;;;23.80;18.08;;;;;;;7.19;93.90;102267.13;5114352;28;20011;-35
2021/10/18 07:12:03;;;;;;;21.93;17.73;;;;;;;7.22;93.88;102266.78;5114669;28;20091;-35
2021/10/18 07:14:29;;;;;;;23.13;17.27;;;;;;;7.44;93.14;102288.56;5114085;28;20286;-35
2021/10/18 07:16:54;;;;;;;24.57;18.37;;;;;;;7.48;94.31;102285.34;5114994;28;20398;-35
2021/10/18 07:19:20;;;;;;;26.47;19.30;;;;;;;7.45;93.37;102266.00;5114115;28;20034;-35
2021/10/18 07:21:46;;;;;;;20.08;16.00;;;;;;;7.58;93.54;102279.72;5114535;28;20020;-35
2021/10/18 07:24:13;;;;;;;27.92;17.95;;;;;;;7.60;93.94;102274.16;5113832;28;20027;-35
2021/10/18 07:26:38;;;;;;;25.65;18.13;;;;;;;7.59;93.63;102272.50;5114316;28;20020;-35
2021/10/18 07:29:03;;;;;;;23.97;17.43;;;;;;;7.68;93.39;102277.66;5114318;28;20058;-35
2021/10/18 07:31:29;;;;;;;23.67;18.30;;;;;;;7.71;93.81;102263.84;5114261;28;20065;-35
2021/10/18 07:34:01;;;;;;;25.27;18.00;;;;;;;7.69;93.20;102249.72;5113875;28;20448;-35
2021/10/18 07:36:27;;;;;;;25.95;17.30;;;;;;;7.85;93.38;102262.22;5114181;28;20023;-35
2021/10/18 07:38:55;;;;;;;26.50;18.23;;;;;;;7.71;92.77;102230.69;5113776;28;20033;-35
2021/10/18 07:41:20;;;;;;;23.83;17.65;;;;;;;7.90;92.78;102265.22;5114559;28;20039;-35
2021/10/18 07:43:46;;;;;;;21.90;16.27;;;;;;;7.96;91.77;102275.31;5113791;28;20451;-35
2021/10/18 07:46:12;;;;;;;23.63;17.77;;;;;;;7.85;92.40;102247.94;5113765;28;20027;-35
2021/10/18 07:48:37;;;;;;;25.13;18.70;;;;;;;8.06;92.23;102274.22;5113707;28;20027;-35
2021/10/18 07:51:03;;;;;;;25.57;18.30;;;;;;;8.11;92.22;102271.84;5095654;28;20292;-35
2021/10/18 07:53:28;;;;;;;24.03;18.20;;;;;;;8.07;91.39;102265.97;5113846;28;20084;-35
2021/10/18 07:55:53;;;;;;;25.37;18.40;;;;;;;8.19;91.42;102267.19;5114107;28;20360;-35
2021/10/18 07:58:20;;;;;;;23.03;18.13;;;;;;;8.32;90.89;102285.47;5113809;28;20026;-35
2021/10/18 08:00:46;;;;;;;27.65;19.60;;;;;;;8.31;91.54;102269.50;5113671;28;20115;-35
2021/10/18 08:03:11;;;;;;;27.90;19.67;;;;;;;8.45;91.42;102277.66;5113583;28;20023;-35
2021/10/18 08:05:36;;;;;;;24.43;18.73;;;;;;;8.34;91.21;102252.94;5113202;28;20363;-35
2021/10/18 08:08:03;;;;;;;23.50;17.50;;;;;;;8.58;90.96;102284.25;5113536;28;20032;-35
2021/10/18 08:10:29;;;;;;;29.35;18.63;;;;;;;8.65;90.76;102277.13;5113682;28;20051;-35
2021/10/18 08:12:56;;;;;;;26.47;18.90;;;;;;;8.69;90.25;102275.75;5113374;28;20463;-35
2021/10/18 08:15:23;;;;;;;27.60;19.60;;;;;;;8.79;90.54;102280.88;5113627;28;20502;-35
2021/10/18 08:17:49;;;;;;;23.45;18.27;;;;;;;8.86;90.27;102288.03;5113834;28;20419;-35
2021/10/18 08:20:15;;;;;;;23.60;17.55;;;;;;;8.89;88.85;102281.44;5113348;28;20041;-35
2021/10/18 08:22:41;;;;;;;24.77;17.58;;;;;;;8.96;89.58;102283.19;5113163;28;20420;-35
2021/10/18 08:25:08;;;;;;;24.67;17.95;;;;;;;9.12;89.66;102292.13;5113310;28;20024;-35
2021/10/18 08:27:33;;;;;;;;;;;;;;;9.24;89.98;102282.56;5113297;28;20019;-35
2021/10/18 08:29:58;;;;;;;24.00;18.13;;;;;;;9.27;89.03;102276.78;5113204;28;19910;-36
2021/10/18 08:32:24;;;;;;;27.27;19.30;;;;;;;9.24;88.83;102252.88;5112916;28;20027;-35
2021/10/18 08:34:49;;;;;;;23.58;19.20;;;;;;;9.56;88.63;102284.00;5113060;28;20023;-35
2021/10/18 08:37:14;;;;;;;30.07;18.97;;;;;;;9.58;86.35;102273.03;5113580;28;20360;-35
2021/10/18 08:42:18;;;;;;;24.90;19.20;;;;;;;9.80;85.66;102286.34;5113587;28;20039;-35
2021/10/18 08:44:44;;;;;;;23.58;18.20;;;;;;;9.79;85.20;102256.84;5113127;28;20042;-35
2021/10/18 08:47:10;;;;;;;26.97;19.23;;;;;;;9.92;85.35;102272.38;5112899;28;20495;-35
2021/10/18 08:49:35;;;;;;;26.52;18.48;;;;;;;9.97;84.93;102264.53;5113408;28;20023;-36
2021/10/18 08:52:00;;;;;;;28.13;18.90;;;;;;;10.06;84.55;102277.72;5113712;28;20034;-35
2021/10/18 08:54:26;;;;;;;24.00;18.77;;;;;;;10.14;84.60;102273.19;5113360;28;20028;-35
2021/10/18 08:56:55;;;;;;;24.27;17.67;;;;;;;10.22;83.44;102278.47;5113503;28;20035;-35
2021/10/18 08:59:21;;;;;;;24.52;17.90;;;;;;;10.32;83.08;102279.03;5112971;28;20127;-35
2021/10/18 09:01:52;;;;;;;23.45;17.60;;;;;;;10.31;82.19;102274.66;5114706;28;20457;-35
2021/10/18 09:04:26;;;;;;;22.70;17.17;;;;;;;10.37;81.29;102281.16;5117020;28;20016;-40
2021/10/18 09:06:56;;;;;;;25.15;17.15;;;;;;;10.50;81.73;102281.28;5117024;28;20081;-36
2021/10/18 09:09:26;;;;;;;27.13;17.13;;;;;;;10.60;80.90;102276.34;5116438;28;20031;-35
2021/10/18 09:11:54;;;;;;;22.20;16.17;;;;;;;10.58;80.87;102252.19;5117007;28;20019;-35
2021/10/18 09:14:20;;;;;;;20.83;16.05;;;;;;;10.68;81.66;102259.94;5116552;28;20031;-35
2021/10/18 09:16:46;;;;;;;20.85;16.00;;;;;;;10.73;81.08;102268.31;5117351;28;20038;-36
2021/10/18 09:19:12;;;;;;;20.33;16.08;;;;;;;10.75;81.02;102271.69;5116183;28;20020;-35
2021/10/18 09:21:40;;;;;;;24.23;16.13;;;;;;;10.67;81.24;102254.75;5116791;28;20078;-36
2021/10/18 09:24:07;;;;;;;21.80;15.48;;;;;;;10.61;80.81;102240.16;5116704;28;20023;-35
2021/10/18 09:26:36;;;;;;;21.30;15.77;;;;;;;10.86;82.12;102264.88;5116456;28;20024;-36
2021/10/18 09:29:05;;;;;;;26.25;16.60;;;;;;;10.88;79.81;102243.84;5116631;28;20024;-35
2021/10/18 09:31:30;;;;;;;21.17;15.48;;;;;;;11.12;79.83;102269.59;5116236;28;20016;-36
2021/10/18 09:34:11;;;;;;;20.27;14.60;;;;;;;11.25;79.22;102253.44;5115966;28;20051;-35
2021/10/18 09:36:37;;;;;;;20.38;15.73;;;;;;;11.18;77.88;102241.75;5116241;28;20111;-36
2021/10/18 09:39:10;;;;;;;;;;;;;;;11.33;79.58;102255.16;5116448;28;20072;-36
2021/10/18 09:41:35;;;;;;;17.90;14.07;;;;;;;11.20;78.47;102238.84;5116846;28;20329;-35
2021/10/18 09:44:07;;;;;;;18.50;13.70;;;;;;;11.26;77.88;102251.56;5115988;28;20161;-35
2021/10/18 10:56:17;;;;;;;16.38;13.05;;;;;;;12.74;72.71;102192.75;5114612;28;20055;-35
2021/10/18 10:58:53;;;;;;;17.73;13.25;;;;;;;12.78;72.40;102192.09;5115301;28;20110;-36
2021/10/18 11:01:43;;;;;;;20.67;12.82;;;;;;;12.87;74.59;102179.97;5115325;28;20035;-35
2021/10/18 11:04:33;;;;;;;17.77;14.00;;;;;;;12.94;75.35;102184.56;5114740;28;20459;-35
2021/10/18 11:07:24;;;;;;;17.40;13.05;;;;;;;12.89;72.51;102172.47;5114488;28;20077;-36
2021/10/18 11:09:50;;;;;;;19.58;14.07;;;;;;;13.02;72.58;102181.59;4992153;28;20048;-36
2021/10/18 11:12:34;;;;;;;18.20;13.50;;;;;;;13.00;73.27;102187.25;4992382;28;20038;-35
2021/10/18 11:15:07;;;;;;;17.08;12.88;;;;;;;13.02;73.96;102170.72;4992039;28;20042;-36
2021/10/18 11:17:34;;;;;;;21.30;12.95;;;;;;;13.19;71.74;102176.53;4992022;28;20030;-36
2021/10/18 11:20:11;;;;;;;17.55;13.10;;;;;;;13.31;72.98;102167.47;4992313;28;20030;-36
2021/10/18 11:22:40;;;;;;;19.25;12.52;;;;;;;13.47;71.78;102144.44;4992656;28;20463;-36
2021/10/18 11:25:15;;;;;;;18.52;12.30;;;;;;;13.52;70.39;102133.72;4991510;28;20550;-36
2021/10/18 11:27:45;;;;;;;16.38;12.23;;;;;;;13.60;69.28;102141.59;4992537;28;20038;-36
2021/10/18 11:30:13;;;;;;;13.82;11.27;;;;;;;13.78;69.63;102150.91;4991766;28;20026;-36
2021/10/18 11:32:39;;;;;;;19.52;12.27;;;;;;;13.72;70.58;102130.03;4991785;28;20071;-35
2021/10/18 11:35:11;;;;;;;15.35;12.18;;;;;;;13.85;71.19;102149.78;4992512;28;20494;-36
2021/10/18 11:37:58;;;;;;;14.80;11.55;;;;;;;13.87;70.95;102152.28;4991958;28;20034;-36
2021/10/18 11:40:25;;;;;;;;;;;;;;;13.96;72.29;102136.53;4992614;28;20041;-36
2021/10/18 11:42:53;;;;;;;16.92;12.60;;;;;;;13.83;70.71;102143.75;4991795;28;19910;-36
2021/10/18 11:45:22;;;;;;;15.50;12.23;;;;;;;13.81;71.56;102145.00;4991826;28;20037;-35
2021/10/18 11:47:47;;;;;;;18.70;13.05;;;;;;;13.91;72.38;102139.94;5112837;28;20063;-36
2021/10/18 11:50:24;;;;;;;21.45;13.05;;;;;;;13.96;72.16;102123.78;5113558;28;20019;-36
2021/10/18 11:53:02;;;;;;;17.73;13.85;;;;;;;13.89;72.47;102121.09;5113757;28;20406;-36
2021/10/18 11:55:35;;;;;;;14.43;12.25;;;;;;;13.80;71.09;102127.84;5113610;28;20103;-35
2021/10/18 11:58:04;;;;;;;16.65;12.70;;;;;;;13.69;70.98;102117.72;5114051;28;20066;-36
2021/10/18 12:00:33;;;;;;;17.27;13.10;;;;;;;13.72;71.81;102111.00;5114090;28;20031;-35
2021/10/18 12:03:03;;;;;;;20.42;13.52;;;;;;;13.68;72.65;102112.50;5113699;28;20023;-36
2021/10/18 12:05:49;;;;;;;19.10;14.07;;;;;;;13.68;72.35;102113.34;5114422;28;20039;-36
2021/10/18 12:08:18;;;;;;;20.38;13.57;;;;;;;13.64;74.10;102106.66;5113819;28;20024;-36
2021/10/18 12:10:47;;;;;;;19.58;13.70;;;;;;;13.64;74.25;102104.78;5114078;28;20024;-36
2021/10/18 12:13:24;;;;;;;18.92;13.32;;;;;;;13.60;72.49;102097.28;5113466;28;20515;-36
2021/10/18 12:15:56;;;;;;;19.60;13.75;;;;;;;13.57;72.18;102098.56;5114361;28;20058;-36
2021/10/18 12:18:24;;;;;;;17.52;13.15;;;;;;;13.56;72.64;102096.88;5113084;28;20061;-36
2021/10/18 12:20:53;;;;;;;18.17;13.52;;;;;;;13.56;72.33;102105.03;5113433;28;20028;-36
2021/10/18 12:23:30;;;;;;;20.20;13.32;;;;;;;13.59;72.52;102098.34;5113263;28;20398;-36
2021/10/18 12:26:13;;;;;;;17.83;12.70;;;;;;;13.58;74.58;102094.78;5113381;28;20034;-36
2021/10/18 12:28:46;;;;;;;16.45;13.23;;;;;;;13.60;73.15;102081.81;5113828;28;20020;-36